sensor_id;sensor_type;location;lat;lon;timestamp;temperature;humidity
16198;DHT22;8206;51.440;6.914;2023-05-09T00:02:15;15.50;99.90
16198;DHT22;8206;51.440;6.914;2023-05-09T00:04:42;15.50;99.90
16198;DHT22;8206;51.440;6.914;2023-05-09T00:07:10;15.40;99.90
16198;DHT22;8206;51.440;6.914;2023-05-09T00:09:37;15.50;99.90
16198;DHT22;8206;51.440;6.914;2023-05-09T00:12:04;15.50;99.90
16198;DHT22;8206;51.440;6.914;2023-05-09T00:14:31;15.50;99.90
16198;DHT22;8206;51.440;6.914;2023-05-09T00:16:58;15.40;99.90
16198;DHT22;8206;51.440;6.914;2023-05-09T00:19:25;15.30;99.90
16198;DHT22;8206;51.440;6.914;2023-05-09T00:21:52;15.30;99.90
16198;DHT22;8206;51.440;6.914;2023-05-09T00:24:20;15.40;99.90
16198;DHT22;8206;51.440;6.914;2023-05-09T00:26:47;15.40;99.90
16198;DHT22;8206;51.440;6.914;2023-05-09T00:29:13;15.30;99.90
16198;DHT22;8206;51.440;6.914;2023-05-09T00:31:40;15.20;99.90
16198;DHT22;8206;51.440;6.914;2023-05-09T00:34:07;15.20;99.90
16198;DHT22;8206;51.440;6.914;2023-05-09T00:36:33;15.20;99.90
16198;DHT22;8206;51.440;6.914;2023-05-09T00:39:00;15.20;99.90
16198;DHT22;8206;51.440;6.914;2023-05-09T00:41:28;15.20;99.90
16198;DHT22;8206;51.440;6.914;2023-05-09T00:43:55;15.20;99.90
16198;DHT22;8206;51.440;6.914;2023-05-09T00:46:22;15.20;99.90
16198;DHT22;8206;51.440;6.914;2023-05-09T00:48:49;15.10;99.90
16198;DHT22;8206;51.440;6.914;2023-05-09T00:51:17;15.10;99.90
16198;DHT22;8206;51.440;6.914;2023-05-09T00:53:44;15.00;99.90
16198;DHT22;8206;51.440;6.914;2023-05-09T00:56:11;15.00;99.90
16198;DHT22;8206;51.440;6.914;2023-05-09T00:58:39;15.00;99.90
16198;DHT22;8206;51.440;6.914;2023-05-09T01:01:06;15.00;99.90
16198;DHT22;8206;51.440;6.914;2023-05-09T01:03:34;15.00;99.90
16198;DHT22;8206;51.440;6.914;2023-05-09T01:06:05;15.00;99.90
16198;DHT22;8206;51.440;6.914;2023-05-09T01:08:46;15.00;99.90
16198;DHT22;8206;51.440;6.914;2023-05-09T01:11:24;14.90;99.90
16198;DHT22;8206;51.440;6.914;2023-05-09T01:13:59;15.00;99.90
16198;DHT22;8206;51.440;6.914;2023-05-09T01:16:36;15.00;99.90
16198;DHT22;8206;51.440;6.914;2023-05-09T01:19:26;14.90;99.90
16198;DHT22;8206;51.440;6.914;2023-05-09T01:21:58;14.90;99.90
16198;DHT22;8206;51.440;6.914;2023-05-09T01:24:44;14.90;99.90
16198;DHT22;8206;51.440;6.914;2023-05-09T01:27:21;14.90;99.90
16198;DHT22;8206;51.440;6.914;2023-05-09T01:29:56;14.90;99.90
16198;DHT22;8206;51.440;6.914;2023-05-09T01:32:24;14.90;99.90
16198;DHT22;8206;51.440;6.914;2023-05-09T01:34:54;14.90;99.90
16198;DHT22;8206;51.440;6.914;2023-05-09T01:37:26;14.80;99.90
16198;DHT22;8206;51.440;6.914;2023-05-09T01:39:57;14.80;99.90
16198;DHT22;8206;51.440;6.914;2023-05-09T01:42:28;14.80;99.90
16198;DHT22;8206;51.440;6.914;2023-05-09T01:44:58;14.80;99.90
16198;DHT22;8206;51.440;6.914;2023-05-09T01:47:26;14.90;99.90
16198;DHT22;8206;51.440;6.914;2023-05-09T01:49:53;14.90;99.90
16198;DHT22;8206;51.440;6.914;2023-05-09T01:52:21;14.90;99.90
16198;DHT22;8206;51.440;6.914;2023-05-09T01:54:49;14.90;99.90
16198;DHT22;8206;51.440;6.914;2023-05-09T01:57:18;14.90;99.90
16198;DHT22;8206;51.440;6.914;2023-05-09T01:59:46;14.90;99.90
16198;DHT22;8206;51.440;6.914;2023-05-09T02:02:14;14.90;99.90
16198;DHT22;8206;51.440;6.914;2023-05-09T02:04:42;14.90;99.90
16198;DHT22;8206;51.440;6.914;2023-05-09T02:07:09;14.90;99.90
16198;DHT22;8206;51.440;6.914;2023-05-09T02:09:37;15.00;99.90
16198;DHT22;8206;51.440;6.914;2023-05-09T02:12:04;15.00;99.90
16198;DHT22;8206;51.440;6.914;2023-05-09T02:14:30;15.00;99.90
16198;DHT22;8206;51.440;6.914;2023-05-09T02:16:59;15.10;99.90
16198;DHT22;8206;51.440;6.914;2023-05-09T02:19:32;15.10;99.90
16198;DHT22;8206;51.440;6.914;2023-05-09T02:21:59;15.10;99.90
16198;DHT22;8206;51.440;6.914;2023-05-09T02:24:25;15.20;99.90
16198;DHT22;8206;51.440;6.914;2023-05-09T02:26:53;15.10;99.90
16198;DHT22;8206;51.440;6.914;2023-05-09T02:29:21;15.20;99.90
16198;DHT22;8206;51.440;6.914;2023-05-09T02:31:50;15.30;99.90
16198;DHT22;8206;51.440;6.914;2023-05-09T02:34:17;15.20;99.90
16198;DHT22;8206;51.440;6.914;2023-05-09T02:36:46;15.30;99.90
16198;DHT22;8206;51.440;6.914;2023-05-09T02:39:13;15.30;99.90
16198;DHT22;8206;51.440;6.914;2023-05-09T02:41:47;15.40;99.90
16198;DHT22;8206;51.440;6.914;2023-05-09T02:44:13;15.30;99.90
16198;DHT22;8206;51.440;6.914;2023-05-09T02:46:40;15.30;99.90
16198;DHT22;8206;51.440;6.914;2023-05-09T02:49:07;15.40;99.90
16198;DHT22;8206;51.440;6.914;2023-05-09T02:51:33;15.40;99.90
16198;DHT22;8206;51.440;6.914;2023-05-09T02:54:02;15.40;99.90
16198;DHT22;8206;51.440;6.914;2023-05-09T02:56:28;15.50;99.90
16198;DHT22;8206;51.440;6.914;2023-05-09T02:58:55;15.50;99.90
16198;DHT22;8206;51.440;6.914;2023-05-09T03:01:22;15.50;99.90
16198;DHT22;8206;51.440;6.914;2023-05-09T03:03:48;15.50;99.90
16198;DHT22;8206;51.440;6.914;2023-05-09T03:06:15;15.40;99.90
16198;DHT22;8206;51.440;6.914;2023-05-09T03:08:42;15.50;99.90
16198;DHT22;8206;51.440;6.914;2023-05-09T03:11:10;15.50;99.90
16198;DHT22;8206;51.440;6.914;2023-05-09T03:13:36;15.50;99.90
16198;DHT22;8206;51.440;6.914;2023-05-09T03:16:03;15.50;99.90
16198;DHT22;8206;51.440;6.914;2023-05-09T03:18:30;15.50;99.90
16198;DHT22;8206;51.440;6.914;2023-05-09T03:20:57;15.50;99.90
16198;DHT22;8206;51.440;6.914;2023-05-09T03:23:24;15.50;99.90
16198;DHT22;8206;51.440;6.914;2023-05-09T03:25:50;15.50;99.90
16198;DHT22;8206;51.440;6.914;2023-05-09T03:28:18;15.50;99.90
16198;DHT22;8206;51.440;6.914;2023-05-09T03:30:45;15.50;99.90
16198;DHT22;8206;51.440;6.914;2023-05-09T03:33:12;15.50;99.90
16198;DHT22;8206;51.440;6.914;2023-05-09T03:35:38;15.40;99.90
16198;DHT22;8206;51.440;6.914;2023-05-09T03:38:05;15.40;99.90
16198;DHT22;8206;51.440;6.914;2023-05-09T03:40:31;15.40;99.90
16198;DHT22;8206;51.440;6.914;2023-05-09T03:42:58;15.30;99.90
16198;DHT22;8206;51.440;6.914;2023-05-09T03:45:26;15.40;99.90
16198;DHT22;8206;51.440;6.914;2023-05-09T03:47:53;15.40;99.90
16198;DHT22;8206;51.440;6.914;2023-05-09T03:50:19;15.50;99.90
16198;DHT22;8206;51.440;6.914;2023-05-09T03:52:46;15.40;99.90
16198;DHT22;8206;51.440;6.914;2023-05-09T03:55:13;15.40;99.90
16198;DHT22;8206;51.440;6.914;2023-05-09T03:57:40;15.40;99.90
16198;DHT22;8206;51.440;6.914;2023-05-09T04:00:07;15.40;99.90
16198;DHT22;8206;51.440;6.914;2023-05-09T04:02:36;15.40;99.90
16198;DHT22;8206;51.440;6.914;2023-05-09T04:05:03;15.50;99.90
16198;DHT22;8206;51.440;6.914;2023-05-09T04:07:30;15.50;99.90
16198;DHT22;8206;51.440;6.914;2023-05-09T04:09:56;15.50;99.90
16198;DHT22;8206;51.440;6.914;2023-05-09T04:12:23;15.40;99.90
16198;DHT22;8206;51.440;6.914;2023-05-09T04:14:50;15.40;99.90
16198;DHT22;8206;51.440;6.914;2023-05-09T04:17:17;15.40;99.90
16198;DHT22;8206;51.440;6.914;2023-05-09T04:19:45;15.40;99.90
16198;DHT22;8206;51.440;6.914;2023-05-09T04:22:11;15.40;99.90
16198;DHT22;8206;51.440;6.914;2023-05-09T04:24:38;15.40;99.90
16198;DHT22;8206;51.440;6.914;2023-05-09T04:27:05;15.40;99.90
16198;DHT22;8206;51.440;6.914;2023-05-09T04:29:32;15.40;99.90
16198;DHT22;8206;51.440;6.914;2023-05-09T04:31:59;15.40;99.90
16198;DHT22;8206;51.440;6.914;2023-05-09T04:34:26;15.40;99.90
16198;DHT22;8206;51.440;6.914;2023-05-09T04:36:54;15.50;99.90
16198;DHT22;8206;51.440;6.914;2023-05-09T04:39:21;15.50;99.90
16198;DHT22;8206;51.440;6.914;2023-05-09T04:41:48;15.40;99.90
16198;DHT22;8206;51.440;6.914;2023-05-09T04:44:15;15.50;99.90
16198;DHT22;8206;51.440;6.914;2023-05-09T04:46:41;15.50;99.90
16198;DHT22;8206;51.440;6.914;2023-05-09T04:49:08;15.50;99.90
16198;DHT22;8206;51.440;6.914;2023-05-09T04:51:35;15.50;99.90
16198;DHT22;8206;51.440;6.914;2023-05-09T04:54:03;15.50;99.90
16198;DHT22;8206;51.440;6.914;2023-05-09T04:56:31;15.50;99.90
16198;DHT22;8206;51.440;6.914;2023-05-09T04:58:57;15.60;99.90
16198;DHT22;8206;51.440;6.914;2023-05-09T05:01:25;15.60;99.90
16198;DHT22;8206;51.440;6.914;2023-05-09T05:03:51;15.50;1.00
16198;DHT22;8206;51.440;6.914;2023-05-09T05:06:18;15.60;1.00
16198;DHT22;8206;51.440;6.914;2023-05-09T05:08:45;15.50;1.00
16198;DHT22;8206;51.440;6.914;2023-05-09T05:11:13;15.50;1.00
16198;DHT22;8206;51.440;6.914;2023-05-09T05:13:39;15.50;1.00
16198;DHT22;8206;51.440;6.914;2023-05-09T05:16:06;15.50;1.00
16198;DHT22;8206;51.440;6.914;2023-05-09T05:18:33;15.50;1.00
16198;DHT22;8206;51.440;6.914;2023-05-09T05:20:59;15.60;1.00
16198;DHT22;8206;51.440;6.914;2023-05-09T05:23:26;15.70;1.00
16198;DHT22;8206;51.440;6.914;2023-05-09T05:25:53;15.70;1.00
16198;DHT22;8206;51.440;6.914;2023-05-09T05:28:21;15.70;99.90
16198;DHT22;8206;51.440;6.914;2023-05-09T05:30:47;15.80;99.90
16198;DHT22;8206;51.440;6.914;2023-05-09T05:33:14;15.90;99.90
16198;DHT22;8206;51.440;6.914;2023-05-09T05:35:41;16.00;1.00
16198;DHT22;8206;51.440;6.914;2023-05-09T05:38:08;16.00;1.00
16198;DHT22;8206;51.440;6.914;2023-05-09T05:40:34;16.10;1.00
16198;DHT22;8206;51.440;6.914;2023-05-09T05:43:01;16.20;99.90
16198;DHT22;8206;51.440;6.914;2023-05-09T05:45:29;16.20;99.90
16198;DHT22;8206;51.440;6.914;2023-05-09T05:47:56;16.30;99.90
16198;DHT22;8206;51.440;6.914;2023-05-09T05:50:22;16.40;1.00
16198;DHT22;8206;51.440;6.914;2023-05-09T05:52:49;16.50;35.20
16198;DHT22;8206;51.440;6.914;2023-05-09T05:55:16;16.50;91.40
16198;DHT22;8206;51.440;6.914;2023-05-09T05:57:42;16.70;99.90
16198;DHT22;8206;51.440;6.914;2023-05-09T06:00:10;16.80;99.90
16198;DHT22;8206;51.440;6.914;2023-05-09T06:02:41;17.00;99.90
16198;DHT22;8206;51.440;6.914;2023-05-09T06:05:08;17.20;99.90
16198;DHT22;8206;51.440;6.914;2023-05-09T06:07:35;17.40;99.90
16198;DHT22;8206;51.440;6.914;2023-05-09T06:10:02;17.50;99.90
16198;DHT22;8206;51.440;6.914;2023-05-09T06:12:29;17.70;99.90
16198;DHT22;8206;51.440;6.914;2023-05-09T06:14:55;18.40;99.90
16198;DHT22;8206;51.440;6.914;2023-05-09T06:17:22;19.20;99.90
16198;DHT22;8206;51.440;6.914;2023-05-09T06:19:50;19.80;99.90
16198;DHT22;8206;51.440;6.914;2023-05-09T06:22:17;20.40;99.90
16198;DHT22;8206;51.440;6.914;2023-05-09T06:24:43;20.90;99.90
16198;DHT22;8206;51.440;6.914;2023-05-09T06:27:10;21.50;99.90
16198;DHT22;8206;51.440;6.914;2023-05-09T06:29:37;21.70;99.90
16198;DHT22;8206;51.440;6.914;2023-05-09T06:32:04;21.90;99.90
16198;DHT22;8206;51.440;6.914;2023-05-09T06:34:30;21.70;99.90
16198;DHT22;8206;51.440;6.914;2023-05-09T06:36:58;21.20;99.90
16198;DHT22;8206;51.440;6.914;2023-05-09T06:39:25;21.40;99.90
16198;DHT22;8206;51.440;6.914;2023-05-09T06:41:52;21.40;99.90
16198;DHT22;8206;51.440;6.914;2023-05-09T06:44:18;21.20;99.90
16198;DHT22;8206;51.440;6.914;2023-05-09T06:46:45;20.80;99.90
16198;DHT22;8206;51.440;6.914;2023-05-09T06:49:12;20.60;99.90
16198;DHT22;8206;51.440;6.914;2023-05-09T06:51:39;20.40;99.90
16198;DHT22;8206;51.440;6.914;2023-05-09T06:54:07;20.30;99.90
16198;DHT22;8206;51.440;6.914;2023-05-09T06:56:33;20.30;99.90
16198;DHT22;8206;51.440;6.914;2023-05-09T06:59:00;20.30;99.90
16198;DHT22;8206;51.440;6.914;2023-05-09T07:01:27;20.70;99.90
16198;DHT22;8206;51.440;6.914;2023-05-09T07:03:53;21.10;99.90
16198;DHT22;8206;51.440;6.914;2023-05-09T07:06:20;21.40;99.90
16198;DHT22;8206;51.440;6.914;2023-05-09T07:08:47;21.40;99.90
16198;DHT22;8206;51.440;6.914;2023-05-09T07:11:15;21.30;99.90
16198;DHT22;8206;51.440;6.914;2023-05-09T07:13:41;21.20;99.90
16198;DHT22;8206;51.440;6.914;2023-05-09T07:16:08;20.90;99.90
16198;DHT22;8206;51.440;6.914;2023-05-09T07:18:34;20.80;99.90
16198;DHT22;8206;51.440;6.914;2023-05-09T07:21:01;20.70;99.90
16198;DHT22;8206;51.440;6.914;2023-05-09T07:23:28;20.90;99.90
16198;DHT22;8206;51.440;6.914;2023-05-09T07:25:55;21.20;99.90
16198;DHT22;8206;51.440;6.914;2023-05-09T07:28:24;21.30;99.90
16198;DHT22;8206;51.440;6.914;2023-05-09T07:30:51;21.60;99.90
16198;DHT22;8206;51.440;6.914;2023-05-09T07:33:18;22.10;99.90
16198;DHT22;8206;51.440;6.914;2023-05-09T07:35:44;22.20;99.90
16198;DHT22;8206;51.440;6.914;2023-05-09T07:38:11;22.50;99.90
16198;DHT22;8206;51.440;6.914;2023-05-09T07:40:39;22.90;99.90
16198;DHT22;8206;51.440;6.914;2023-05-09T07:43:05;23.30;99.90
16198;DHT22;8206;51.440;6.914;2023-05-09T07:45:33;23.40;99.90
16198;DHT22;8206;51.440;6.914;2023-05-09T07:48:00;23.20;99.90
16198;DHT22;8206;51.440;6.914;2023-05-09T07:50:29;22.80;99.90
16198;DHT22;8206;51.440;6.914;2023-05-09T07:52:55;22.40;99.90
16198;DHT22;8206;51.440;6.914;2023-05-09T07:55:22;21.90;99.90
16198;DHT22;8206;51.440;6.914;2023-05-09T07:57:49;21.80;99.90
16198;DHT22;8206;51.440;6.914;2023-05-09T08:00:16;21.60;99.90
16198;DHT22;8206;51.440;6.914;2023-05-09T08:02:49;21.50;99.90
16198;DHT22;8206;51.440;6.914;2023-05-09T08:05:16;21.30;99.90
16198;DHT22;8206;51.440;6.914;2023-05-09T08:07:42;21.50;99.90
16198;DHT22;8206;51.440;6.914;2023-05-09T08:10:09;21.60;99.90
16198;DHT22;8206;51.440;6.914;2023-05-09T08:12:36;21.90;99.90
16198;DHT22;8206;51.440;6.914;2023-05-09T08:15:04;22.00;99.90
16198;DHT22;8206;51.440;6.914;2023-05-09T08:17:31;22.00;99.90
16198;DHT22;8206;51.440;6.914;2023-05-09T08:19:59;22.20;99.90
16198;DHT22;8206;51.440;6.914;2023-05-09T08:22:25;22.70;99.90
16198;DHT22;8206;51.440;6.914;2023-05-09T08:24:52;22.80;99.90
16198;DHT22;8206;51.440;6.914;2023-05-09T08:27:18;22.70;99.90
16198;DHT22;8206;51.440;6.914;2023-05-09T08:29:45;22.60;99.90
16198;DHT22;8206;51.440;6.914;2023-05-09T08:32:12;22.90;99.90
16198;DHT22;8206;51.440;6.914;2023-05-09T08:34:38;22.80;99.90
16198;DHT22;8206;51.440;6.914;2023-05-09T08:37:06;22.80;99.90
16198;DHT22;8206;51.440;6.914;2023-05-09T08:39:33;22.90;99.90
16198;DHT22;8206;51.440;6.914;2023-05-09T08:42:01;23.00;99.90
16198;DHT22;8206;51.440;6.914;2023-05-09T08:44:29;23.10;99.90
16198;DHT22;8206;51.440;6.914;2023-05-09T08:46:58;23.10;99.90
16198;DHT22;8206;51.440;6.914;2023-05-09T08:49:25;23.10;99.90
16198;DHT22;8206;51.440;6.914;2023-05-09T08:51:53;22.80;99.90
16198;DHT22;8206;51.440;6.914;2023-05-09T08:54:22;22.60;99.90
16198;DHT22;8206;51.440;6.914;2023-05-09T08:56:50;22.60;99.90
16198;DHT22;8206;51.440;6.914;2023-05-09T08:59:17;22.60;99.90
16198;DHT22;8206;51.440;6.914;2023-05-09T09:01:44;22.90;99.90
16198;DHT22;8206;51.440;6.914;2023-05-09T09:04:11;23.30;99.90
16198;DHT22;8206;51.440;6.914;2023-05-09T09:06:38;23.40;99.90
16198;DHT22;8206;51.440;6.914;2023-05-09T09:09:06;23.30;99.90
16198;DHT22;8206;51.440;6.914;2023-05-09T09:11:35;23.30;99.90
16198;DHT22;8206;51.440;6.914;2023-05-09T09:14:07;23.70;99.90
16198;DHT22;8206;51.440;6.914;2023-05-09T09:16:36;23.70;99.90
16198;DHT22;8206;51.440;6.914;2023-05-09T09:19:04;23.40;99.90
16198;DHT22;8206;51.440;6.914;2023-05-09T09:21:33;23.30;99.90
16198;DHT22;8206;51.440;6.914;2023-05-09T09:24:00;23.20;99.90
16198;DHT22;8206;51.440;6.914;2023-05-09T09:26:28;23.30;99.90
16198;DHT22;8206;51.440;6.914;2023-05-09T09:28:58;23.30;99.90
16198;DHT22;8206;51.440;6.914;2023-05-09T09:31:26;23.30;99.90
16198;DHT22;8206;51.440;6.914;2023-05-09T09:33:58;23.40;99.90
16198;DHT22;8206;51.440;6.914;2023-05-09T09:36:26;23.70;99.90
16198;DHT22;8206;51.440;6.914;2023-05-09T09:38:56;23.90;99.90
16198;DHT22;8206;51.440;6.914;2023-05-09T09:41:29;24.30;99.90
16198;DHT22;8206;51.440;6.914;2023-05-09T09:43:58;24.50;99.90
16198;DHT22;8206;51.440;6.914;2023-05-09T09:46:25;24.40;99.90
16198;DHT22;8206;51.440;6.914;2023-05-09T09:48:51;24.10;99.90
16198;DHT22;8206;51.440;6.914;2023-05-09T09:51:21;24.10;99.90
16198;DHT22;8206;51.440;6.914;2023-05-09T09:53:47;24.00;99.90
16198;DHT22;8206;51.440;6.914;2023-05-09T09:56:14;24.20;99.90
16198;DHT22;8206;51.440;6.914;2023-05-09T09:58:41;24.10;99.90
16198;DHT22;8206;51.440;6.914;2023-05-09T10:01:10;24.30;99.90
16198;DHT22;8206;51.440;6.914;2023-05-09T10:03:39;24.20;99.90
16198;DHT22;8206;51.440;6.914;2023-05-09T10:06:09;24.10;99.90
16198;DHT22;8206;51.440;6.914;2023-05-09T10:08:36;24.30;99.90
16198;DHT22;8206;51.440;6.914;2023-05-09T10:11:03;24.50;99.90
16198;DHT22;8206;51.440;6.914;2023-05-09T10:13:30;24.50;99.90
16198;DHT22;8206;51.440;6.914;2023-05-09T10:15:58;24.40;99.90
16198;DHT22;8206;51.440;6.914;2023-05-09T10:18:28;24.60;99.90
16198;DHT22;8206;51.440;6.914;2023-05-09T10:20:57;24.70;99.90
16198;DHT22;8206;51.440;6.914;2023-05-09T10:23:26;24.60;99.90
16198;DHT22;8206;51.440;6.914;2023-05-09T10:25:59;24.50;99.90
16198;DHT22;8206;51.440;6.914;2023-05-09T10:28:31;24.30;99.90
16198;DHT22;8206;51.440;6.914;2023-05-09T10:31:02;24.20;99.90
16198;DHT22;8206;51.440;6.914;2023-05-09T10:33:37;24.20;99.90
16198;DHT22;8206;51.440;6.914;2023-05-09T10:36:07;24.30;99.90
16198;DHT22;8206;51.440;6.914;2023-05-09T10:38:35;24.20;99.90
16198;DHT22;8206;51.440;6.914;2023-05-09T10:41:02;24.20;99.90
16198;DHT22;8206;51.440;6.914;2023-05-09T10:43:31;24.10;99.90
16198;DHT22;8206;51.440;6.914;2023-05-09T10:45:59;24.10;99.90
16198;DHT22;8206;51.440;6.914;2023-05-09T10:48:26;24.10;99.90
16198;DHT22;8206;51.440;6.914;2023-05-09T10:50:54;24.30;99.90
16198;DHT22;8206;51.440;6.914;2023-05-09T10:53:21;24.50;99.90
16198;DHT22;8206;51.440;6.914;2023-05-09T10:55:53;24.30;99.90
16198;DHT22;8206;51.440;6.914;2023-05-09T10:58:23;24.20;99.90
16198;DHT22;8206;51.440;6.914;2023-05-09T11:00:52;24.20;99.90
16198;DHT22;8206;51.440;6.914;2023-05-09T11:03:20;24.30;99.90
16198;DHT22;8206;51.440;6.914;2023-05-09T11:05:48;24.10;99.90
16198;DHT22;8206;51.440;6.914;2023-05-09T11:08:21;24.20;99.90
16198;DHT22;8206;51.440;6.914;2023-05-09T11:10:48;24.40;99.90
16198;DHT22;8206;51.440;6.914;2023-05-09T11:13:19;24.60;99.90
16198;DHT22;8206;51.440;6.914;2023-05-09T11:15:50;24.70;99.90
16198;DHT22;8206;51.440;6.914;2023-05-09T11:18:17;25.00;99.90
16198;DHT22;8206;51.440;6.914;2023-05-09T11:20:45;25.00;99.90
16198;DHT22;8206;51.440;6.914;2023-05-09T11:23:15;25.20;99.90
16198;DHT22;8206;51.440;6.914;2023-05-09T11:25:45;25.40;99.90
16198;DHT22;8206;51.440;6.914;2023-05-09T11:28:25;25.50;99.90
16198;DHT22;8206;51.440;6.914;2023-05-09T11:30:53;25.50;99.90
16198;DHT22;8206;51.440;6.914;2023-05-09T11:33:25;25.30;99.90
16198;DHT22;8206;51.440;6.914;2023-05-09T11:36:15;24.90;99.90
16198;DHT22;8206;51.440;6.914;2023-05-09T11:38:43;24.90;99.90
16198;DHT22;8206;51.440;6.914;2023-05-09T11:41:11;25.20;99.90
16198;DHT22;8206;51.440;6.914;2023-05-09T11:43:38;25.20;99.90
16198;DHT22;8206;51.440;6.914;2023-05-09T11:46:05;25.10;99.90
16198;DHT22;8206;51.440;6.914;2023-05-09T11:48:37;25.10;99.90
16198;DHT22;8206;51.440;6.914;2023-05-09T11:51:04;25.30;99.90
16198;DHT22;8206;51.440;6.914;2023-05-09T11:53:31;25.10;99.90
16198;DHT22;8206;51.440;6.914;2023-05-09T11:56:01;25.00;99.90
16198;DHT22;8206;51.440;6.914;2023-05-09T11:58:29;25.10;99.90
16198;DHT22;8206;51.440;6.914;2023-05-09T12:00:56;25.30;99.90
16198;DHT22;8206;51.440;6.914;2023-05-09T12:03:23;25.50;99.90
16198;DHT22;8206;51.440;6.914;2023-05-09T12:05:53;25.60;99.90
16198;DHT22;8206;51.440;6.914;2023-05-09T12:08:20;25.60;99.90
16198;DHT22;8206;51.440;6.914;2023-05-09T12:10:48;25.40;99.90
16198;DHT22;8206;51.440;6.914;2023-05-09T12:13:15;25.40;99.90
16198;DHT22;8206;51.440;6.914;2023-05-09T12:15:43;25.40;99.90
16198;DHT22;8206;51.440;6.914;2023-05-09T12:18:10;25.30;99.90
16198;DHT22;8206;51.440;6.914;2023-05-09T12:20:41;25.40;99.90
16198;DHT22;8206;51.440;6.914;2023-05-09T12:23:09;25.30;99.90
16198;DHT22;8206;51.440;6.914;2023-05-09T12:25:36;25.30;99.90
16198;DHT22;8206;51.440;6.914;2023-05-09T12:28:03;25.30;99.90
16198;DHT22;8206;51.440;6.914;2023-05-09T12:30:31;25.40;99.90
16198;DHT22;8206;51.440;6.914;2023-05-09T12:32:59;25.40;99.90
16198;DHT22;8206;51.440;6.914;2023-05-09T12:35:26;25.60;99.90
16198;DHT22;8206;51.440;6.914;2023-05-09T12:37:57;25.70;99.90
16198;DHT22;8206;51.440;6.914;2023-05-09T12:40:24;25.80;99.90
16198;DHT22;8206;51.440;6.914;2023-05-09T12:42:51;25.90;99.90
16198;DHT22;8206;51.440;6.914;2023-05-09T12:45:24;25.80;99.90
16198;DHT22;8206;51.440;6.914;2023-05-09T12:47:51;25.80;99.90
16198;DHT22;8206;51.440;6.914;2023-05-09T12:50:19;25.60;99.90
16198;DHT22;8206;51.440;6.914;2023-05-09T12:52:49;25.70;99.90
16198;DHT22;8206;51.440;6.914;2023-05-09T12:55:17;25.80;99.90
16198;DHT22;8206;51.440;6.914;2023-05-09T12:57:56;25.70;99.90
16198;DHT22;8206;51.440;6.914;2023-05-09T13:00:23;25.60;99.90
16198;DHT22;8206;51.440;6.914;2023-05-09T13:02:50;25.60;99.90
16198;DHT22;8206;51.440;6.914;2023-05-09T13:05:20;25.50;99.90
16198;DHT22;8206;51.440;6.914;2023-05-09T13:07:49;25.40;99.90
16198;DHT22;8206;51.440;6.914;2023-05-09T13:10:18;25.50;99.90
16198;DHT22;8206;51.440;6.914;2023-05-09T13:12:47;25.70;99.90
16198;DHT22;8206;51.440;6.914;2023-05-09T13:15:15;25.60;99.90
16198;DHT22;8206;51.440;6.914;2023-05-09T13:17:45;25.50;99.90
16198;DHT22;8206;51.440;6.914;2023-05-09T13:20:12;25.40;99.90
16198;DHT22;8206;51.440;6.914;2023-05-09T13:22:40;25.50;99.90
16198;DHT22;8206;51.440;6.914;2023-05-09T13:25:08;25.40;99.90
16198;DHT22;8206;51.440;6.914;2023-05-09T13:27:36;25.00;99.90
16198;DHT22;8206;51.440;6.914;2023-05-09T13:30:03;24.80;99.90
16198;DHT22;8206;51.440;6.914;2023-05-09T13:32:31;24.30;99.90
16198;DHT22;8206;51.440;6.914;2023-05-09T13:34:58;23.60;99.90
16198;DHT22;8206;51.440;6.914;2023-05-09T13:37:25;22.50;99.90
16198;DHT22;8206;51.440;6.914;2023-05-09T13:39:54;21.70;99.90
16198;DHT22;8206;51.440;6.914;2023-05-09T13:42:21;21.20;99.90
16198;DHT22;8206;51.440;6.914;2023-05-09T13:44:47;20.80;99.90
16198;DHT22;8206;51.440;6.914;2023-05-09T13:47:14;20.40;99.90
16198;DHT22;8206;51.440;6.914;2023-05-09T13:49:41;20.10;99.90
16198;DHT22;8206;51.440;6.914;2023-05-09T13:52:08;19.90;99.90
16198;DHT22;8206;51.440;6.914;2023-05-09T13:54:35;19.50;99.90
16198;DHT22;8206;51.440;6.914;2023-05-09T13:57:04;19.60;99.90
16198;DHT22;8206;51.440;6.914;2023-05-09T13:59:31;19.80;99.90
16198;DHT22;8206;51.440;6.914;2023-05-09T14:01:57;20.10;99.90
16198;DHT22;8206;51.440;6.914;2023-05-09T14:04:24;20.20;99.90
16198;DHT22;8206;51.440;6.914;2023-05-09T14:06:51;20.20;99.90
16198;DHT22;8206;51.440;6.914;2023-05-09T14:09:18;20.00;99.90
16198;DHT22;8206;51.440;6.914;2023-05-09T14:11:46;19.80;99.90
16198;DHT22;8206;51.440;6.914;2023-05-09T14:14:15;19.80;99.90
16198;DHT22;8206;51.440;6.914;2023-05-09T14:16:42;19.80;99.90
16198;DHT22;8206;51.440;6.914;2023-05-09T14:19:08;19.70;99.90
16198;DHT22;8206;51.440;6.914;2023-05-09T14:21:35;19.60;99.90
16198;DHT22;8206;51.440;6.914;2023-05-09T14:24:02;19.40;99.90
16198;DHT22;8206;51.440;6.914;2023-05-09T14:26:29;19.30;99.90
16198;DHT22;8206;51.440;6.914;2023-05-09T14:28:56;19.20;99.90
16198;DHT22;8206;51.440;6.914;2023-05-09T14:31:23;19.20;99.90
16198;DHT22;8206;51.440;6.914;2023-05-09T14:33:50;19.20;99.90
16198;DHT22;8206;51.440;6.914;2023-05-09T14:36:17;19.20;99.90
16198;DHT22;8206;51.440;6.914;2023-05-09T14:38:43;19.30;99.90
16198;DHT22;8206;51.440;6.914;2023-05-09T14:41:12;19.40;99.90
16198;DHT22;8206;51.440;6.914;2023-05-09T14:43:39;19.30;99.90
16198;DHT22;8206;51.440;6.914;2023-05-09T14:46:06;19.30;99.90
16198;DHT22;8206;51.440;6.914;2023-05-09T14:48:34;19.20;99.90
16198;DHT22;8206;51.440;6.914;2023-05-09T14:51:01;19.20;99.90
16198;DHT22;8206;51.440;6.914;2023-05-09T14:53:28;19.00;99.90
16198;DHT22;8206;51.440;6.914;2023-05-09T14:55:55;18.80;99.90
16198;DHT22;8206;51.440;6.914;2023-05-09T14:58:22;18.80;99.90
16198;DHT22;8206;51.440;6.914;2023-05-09T15:00:48;18.70;99.90
16198;DHT22;8206;51.440;6.914;2023-05-09T15:03:17;18.60;99.90
16198;DHT22;8206;51.440;6.914;2023-05-09T15:05:45;18.50;99.90
16198;DHT22;8206;51.440;6.914;2023-05-09T15:08:11;18.30;99.90
16198;DHT22;8206;51.440;6.914;2023-05-09T15:10:38;18.20;99.90
16198;DHT22;8206;51.440;6.914;2023-05-09T15:13:05;18.10;99.90
16198;DHT22;8206;51.440;6.914;2023-05-09T15:15:32;18.00;99.90
16198;DHT22;8206;51.440;6.914;2023-05-09T15:17:58;17.90;99.90
16198;DHT22;8206;51.440;6.914;2023-05-09T15:20:26;17.80;99.90
16198;DHT22;8206;51.440;6.914;2023-05-09T15:22:54;17.70;99.90
16198;DHT22;8206;51.440;6.914;2023-05-09T15:25:21;17.70;99.90
16198;DHT22;8206;51.440;6.914;2023-05-09T15:27:48;17.50;99.90
16198;DHT22;8206;51.440;6.914;2023-05-09T15:30:15;17.50;99.90
16198;DHT22;8206;51.440;6.914;2023-05-09T15:32:42;17.60;99.90
16198;DHT22;8206;51.440;6.914;2023-05-09T15:35:09;17.60;99.90
16198;DHT22;8206;51.440;6.914;2023-05-09T15:37:36;17.50;99.90
16198;DHT22;8206;51.440;6.914;2023-05-09T15:40:05;17.40;99.90
16198;DHT22;8206;51.440;6.914;2023-05-09T15:42:32;17.40;99.90
16198;DHT22;8206;51.440;6.914;2023-05-09T15:44:59;17.40;99.90
16198;DHT22;8206;51.440;6.914;2023-05-09T15:47:26;17.50;99.90
16198;DHT22;8206;51.440;6.914;2023-05-09T15:49:52;17.50;99.90
16198;DHT22;8206;51.440;6.914;2023-05-09T15:52:19;17.60;99.90